Stockwell, Indiana
Current Conditions -  °F | °C
As of 1:15 AM on Monday 22 Dec 2014 (Local Time) from KFKR Reporting Station
Haze Haze  
Wind Chill: 23°   Ceiling: Unl
Heat Index: 29°   Visibility: 5mi
Dew Point: 29°   Wind: 6mph
Humidity: 99%   Direction: 100°E
Pressure: 30.06"   Gusts: NA
Location:  40.29°N, 86.77°W
Report Text: KFKR 220615Z AUTO 10005KT 5SM BR CLR M02/M02 A3006 RMK AO2 T10171019
Loading
Personal Weather Stations






























Interactive Weather Map New forecast layout! Learn more

10-Day Weather Forecast

Advertisements
Track Severe Weather on mobile